Terminal Aerodrome Forecast
Issued by NWS Caribou, ME

Home | Current Version | Previous Version | Text Only | Print | Product List | Glossary On
Versions: 1 2 3 4 5 6 7 8 9 10 11 12 13 14 15 16 17 18 19 20
665
FTUS41 KCAR 131720
TAFCAR
TAF
KCAR 131720Z 1318/1418 VRB03KT P6SM BKN045
     FM132200 36007KT 1SM -SHSN BKN025
      TEMPO 1322/1323 1/4SM +SN VV008
     FM140100 35008KT 3SM -SHSN BKN025
     FM140400 34010G18KT P6SM SCT060=

USA.gov is the U.S. government's official web portal to all federal, state and local government web resources and services.